KMHR/MHR METAR and TAF weather

Enter ICAO airport designator
Station Type Date Time Source
KMHR METAR 2022/06/27 17:15 UTC NOAA

KMHR 271715Z AUTO 21005KT 10SM CLR 25/11 A3001 RMK A01


Station Type Date Time Source
KMHR Decoded METAR 2022/06/27 17:15 UTC NOAA

Sacramento, Sacramento Mather Airport, CA, United States (KMHR) 38-33N 121-18W
Jun 27, 2022 - 01:15 PM EDT / 2022.06.27 1715 UTC
Wind: from the SSW (210 degrees) at 6 MPH (5 KT):0
Visibility: 10 mile(s):0
Sky conditions: clear
Temperature: 77 F (25 C)
Dew Point: 51 F (11 C)
Relative Humidity: 41%
Pressure (altimeter): 30.01 in. Hg (1016 hPa)
ob: KMHR 271715Z AUTO 21005KT 10SM CLR 25/11 A3001 RMK A01
cycle: 17

Station Type Date Time Source
KMHR TAF 2022/06/27 18:20 UTC NOAA

TAF KMHR 271720Z 2718/2818 23009KT P6SM SKC
FM280500 16006KT P6SM SKC

Example: see airport list